sensor_id;sensor_type;location;lat;lon;timestamp;pressure;altitude;pressure_sealevel;temperature;humidity
59987;BME280;46181;51.498;5.392;2023-07-31T00:03:39;100962.1;;;21.38;62.9668
59987;BME280;46181;51.498;5.392;2023-07-31T00:08:09;100953.9;;;21.39;62.93359
59987;BME280;46181;51.498;5.392;2023-07-31T00:12:41;100962.1;;;21.39;62.87598
59987;BME280;46181;51.498;5.392;2023-07-31T00:17:10;100955.5;;;21.37;62.98828
59987;BME280;46181;51.498;5.392;2023-07-31T00:21:39;100955;;;21.36;62.96387
59987;BME280;46181;51.498;5.392;2023-07-31T00:26:09;100957.3;;;21.38;62.97852
59987;BME280;46181;51.498;5.392;2023-07-31T00:30:39;100953.7;;;21.41;62.9707
59987;BME280;46181;51.498;5.392;2023-07-31T00:35:10;100949.3;;;21.41;62.90137
59987;BME280;46181;51.498;5.392;2023-07-31T00:39:39;100953.5;;;21.4;62.98047
59987;BME280;46181;51.498;5.392;2023-07-31T00:44:09;100947.4;;;21.42;62.92578
59987;BME280;46181;51.498;5.392;2023-07-31T00:48:41;100947.2;;;21.41;62.88965
59987;BME280;46181;51.498;5.392;2023-07-31T00:53:09;100944;;;21.41;62.88965
59987;BME280;46181;51.498;5.392;2023-07-31T00:57:40;100941.5;;;21.4;63.01563
59987;BME280;46181;51.498;5.392;2023-07-31T01:02:10;100937.5;;;21.41;62.98242
59987;BME280;46181;51.498;5.392;2023-07-31T01:06:52;100929.1;;;21.34;63.12305
59987;BME280;46181;51.498;5.392;2023-07-31T01:11:16;100929.6;;;21.37;63.0459
59987;BME280;46181;51.498;5.392;2023-07-31T01:15:40;100930;;;21.4;62.95898
59987;BME280;46181;51.498;5.392;2023-07-31T01:20:13;100933.2;;;21.4;62.91211
59987;BME280;46181;51.498;5.392;2023-07-31T01:24:48;100927.3;;;21.36;62.96387
59987;BME280;46181;51.498;5.392;2023-07-31T01:29:14;100930;;;21.37;62.93066
59987;BME280;46181;51.498;5.392;2023-07-31T01:33:39;100925.3;;;21.36;62.91797
59987;BME280;46181;51.498;5.392;2023-07-31T01:38:09;100934;;;21.37;62.85059
59987;BME280;46181;51.498;5.392;2023-07-31T01:42:39;100926.3;;;21.34;62.8457
59987;BME280;46181;51.498;5.392;2023-07-31T01:47:09;100925.4;;;21.32;62.80957
59987;BME280;46181;51.498;5.392;2023-07-31T01:51:40;100924.3;;;21.29;62.82715
59987;BME280;46181;51.498;5.392;2023-07-31T01:56:09;100918;;;21.24;62.80957
59987;BME280;46181;51.498;5.392;2023-07-31T02:00:39;100909.8;;;21.2;62.80273
59987;BME280;46181;51.498;5.392;2023-07-31T02:05:10;100901.8;;;21.17;62.81055
59987;BME280;46181;51.498;5.392;2023-07-31T02:09:39;100896.3;;;21.14;62.77148
59987;BME280;46181;51.498;5.392;2023-07-31T02:14:09;100891.1;;;21.12;62.78027
59987;BME280;46181;51.498;5.392;2023-07-31T02:18:39;100884.1;;;21.09;62.77637
59987;BME280;46181;51.498;5.392;2023-07-31T02:23:09;100885.6;;;21.08;62.7627
59987;BME280;46181;51.498;5.392;2023-07-31T02:27:39;100876;;;21.06;62.67969
59987;BME280;46181;51.498;5.392;2023-07-31T02:32:10;100875.7;;;21.05;62.64355
59987;BME280;46181;51.498;5.392;2023-07-31T02:36:39;100873.3;;;21.03;62.61816
59987;BME280;46181;51.498;5.392;2023-07-31T02:41:09;100863.8;;;21.01;62.55762
59987;BME280;46181;51.498;5.392;2023-07-31T02:45:39;100865.3;;;21;62.55566
59987;BME280;46181;51.498;5.392;2023-07-31T02:50:10;100866.4;;;20.98;62.55273
59987;BME280;46181;51.498;5.392;2023-07-31T02:54:39;100865;;;20.96;62.5166
59987;BME280;46181;51.498;5.392;2023-07-31T02:59:09;100860.4;;;20.95;62.46875
59987;BME280;46181;51.498;5.392;2023-07-31T03:03:40;100861.6;;;20.94;62.4668
59987;BME280;46181;51.498;5.392;2023-07-31T03:08:09;100857.5;;;20.96;62.49316
59987;BME280;46181;51.498;5.392;2023-07-31T03:12:39;100849.3;;;20.95;62.44531
59987;BME280;46181;51.498;5.392;2023-07-31T03:17:09;100855.4;;;20.93;62.39844
59987;BME280;46181;51.498;5.392;2023-07-31T03:21:39;100853.8;;;20.94;62.35254
59987;BME280;46181;51.498;5.392;2023-07-31T03:26:10;100849.7;;;20.93;62.39844
59987;BME280;46181;51.498;5.392;2023-07-31T03:30:39;100847.6;;;20.95;62.44531
59987;BME280;46181;51.498;5.392;2023-07-31T03:35:10;100842.9;;;20.97;62.42578
59987;BME280;46181;51.498;5.392;2023-07-31T03:39:39;100831.2;;;20.99;62.39453
59987;BME280;46181;51.498;5.392;2023-07-31T03:44:09;100831;;;21.01;62.39551
59987;BME280;46181;51.498;5.392;2023-07-31T03:48:39;100825.5;;;21.04;62.36621
59987;BME280;46181;51.498;5.392;2023-07-31T03:53:09;100825.4;;;21.09;62.30469
59987;BME280;46181;51.498;5.392;2023-07-31T03:57:39;100807.8;;;21.1;62.31738
59987;BME280;46181;51.498;5.392;2023-07-31T04:02:09;100805.9;;;21.14;62.28906
59987;BME280;46181;51.498;5.392;2023-07-31T04:06:39;100799.6;;;21.18;62.27051
59987;BME280;46181;51.498;5.392;2023-07-31T04:11:10;100796.2;;;21.23;62.20898
59987;BME280;46181;51.498;5.392;2023-07-31T04:15:39;100787.4;;;21.24;62.19922
59987;BME280;46181;51.498;5.392;2023-07-31T04:20:10;100788.1;;;21.28;62.21582
59987;BME280;46181;51.498;5.392;2023-07-31T04:24:39;100781.7;;;21.31;62.18457
59987;BME280;46181;51.498;5.392;2023-07-31T04:29:09;100779.4;;;21.35;62.24902
59987;BME280;46181;51.498;5.392;2023-07-31T04:33:39;100770.1;;;21.4;62.25488
59987;BME280;46181;51.498;5.392;2023-07-31T04:38:09;100765.7;;;21.43;62.16797
59987;BME280;46181;51.498;5.392;2023-07-31T04:42:39;100766.4;;;21.4;62.24316
59987;BME280;46181;51.498;5.392;2023-07-31T04:47:09;100755.6;;;21.38;62.39063
59987;BME280;46181;51.498;5.392;2023-07-31T04:51:39;100750.1;;;21.41;62.50977
59987;BME280;46181;51.498;5.392;2023-07-31T04:56:10;100758.1;;;21.44;62.53809
59987;BME280;46181;51.498;5.392;2023-07-31T05:00:40;100750.7;;;21.5;62.49902
59987;BME280;46181;51.498;5.392;2023-07-31T05:05:10;100748.6;;;21.5;62.49902
59987;BME280;46181;51.498;5.392;2023-07-31T05:09:39;100741.5;;;21.38;62.71289
59987;BME280;46181;51.498;5.392;2023-07-31T05:14:10;100743.9;;;21.32;62.85449
59987;BME280;46181;51.498;5.392;2023-07-31T05:18:39;100740;;;21.3;63.07031
59987;BME280;46181;51.498;5.392;2023-07-31T05:23:10;100740.3;;;21.29;63.20605
59987;BME280;46181;51.498;5.392;2023-07-31T05:27:40;100743.4;;;21.32;63.29199
59987;BME280;46181;51.498;5.392;2023-07-31T05:32:10;100746.7;;;21.32;63.31543
59987;BME280;46181;51.498;5.392;2023-07-31T05:36:39;100741.4;;;21.31;63.30176
59987;BME280;46181;51.498;5.392;2023-07-31T05:41:10;100741.6;;;21.24;63.50098
59987;BME280;46181;51.498;5.392;2023-07-31T05:45:40;100725.3;;;21.17;63.66309
59987;BME280;46181;51.498;5.392;2023-07-31T05:50:10;100724.4;;;21.14;63.86621
59987;BME280;46181;51.498;5.392;2023-07-31T05:54:41;100716.7;;;21.11;64.05664
59987;BME280;46181;51.498;5.392;2023-07-31T05:59:11;100717.5;;;21.12;64.23145
59987;BME280;46181;51.498;5.392;2023-07-31T06:03:39;100718.6;;;21.09;64.22656
59987;BME280;46181;51.498;5.392;2023-07-31T06:08:09;100711;;;21.07;64.43164
59987;BME280;46181;51.498;5.392;2023-07-31T06:12:40;100716.6;;;21.09;64.51465
59987;BME280;46181;51.498;5.392;2023-07-31T06:17:10;100706;;;21.12;64.54199
59987;BME280;46181;51.498;5.392;2023-07-31T06:21:39;100694.1;;;21.08;64.69629
59987;BME280;46181;51.498;5.392;2023-07-31T06:26:09;100701.5;;;21.1;64.93066
59987;BME280;46181;51.498;5.392;2023-07-31T06:30:40;100701.2;;;21.15;64.97168
59987;BME280;46181;51.498;5.392;2023-07-31T06:35:10;100693.2;;;21.17;64.99805
59987;BME280;46181;51.498;5.392;2023-07-31T06:39:40;100695.9;;;21.23;65.11133
59987;BME280;46181;51.498;5.392;2023-07-31T06:44:10;100685.9;;;21.29;65.16406
59987;BME280;46181;51.498;5.392;2023-07-31T06:48:40;100683;;;21.29;65.28027
59987;BME280;46181;51.498;5.392;2023-07-31T06:53:10;100679.7;;;21.32;65.28418
59987;BME280;46181;51.498;5.392;2023-07-31T06:57:40;100675.9;;;21.31;65.30566
59987;BME280;46181;51.498;5.392;2023-07-31T07:02:10;100681.7;;;21.33;65.46973
59987;BME280;46181;51.498;5.392;2023-07-31T07:06:39;100670.4;;;21.3;65.64941
59987;BME280;46181;51.498;5.392;2023-07-31T07:11:10;100664;;;21.39;65.77832
59987;BME280;46181;51.498;5.392;2023-07-31T07:15:40;100661;;;21.45;65.64941
59987;BME280;46181;51.498;5.392;2023-07-31T07:20:11;100659.7;;;21.43;65.80762
59987;BME280;46181;51.498;5.392;2023-07-31T07:24:40;100662.1;;;21.47;65.90527
59987;BME280;46181;51.498;5.392;2023-07-31T07:29:10;100654.3;;;21.49;66.07031
59987;BME280;46181;51.498;5.392;2023-07-31T07:33:39;100656.9;;;21.49;66.08203
59987;BME280;46181;51.498;5.392;2023-07-31T07:38:10;100659.9;;;21.47;66.1123
59987;BME280;46181;51.498;5.392;2023-07-31T07:42:40;100665.4;;;21.49;66.39258
59987;BME280;46181;51.498;5.392;2023-07-31T07:47:10;100663.6;;;21.52;66.48926
59987;BME280;46181;51.498;5.392;2023-07-31T07:51:40;100666.7;;;21.6;66.55859
59987;BME280;46181;51.498;5.392;2023-07-31T07:56:09;100657.2;;;21.67;66.5332
59987;BME280;46181;51.498;5.392;2023-07-31T08:00:40;100654.6;;;21.7;66.37793
59987;BME280;46181;51.498;5.392;2023-07-31T08:05:10;100654.8;;;21.74;66.2793
59987;BME280;46181;51.498;5.392;2023-07-31T08:09:40;100655.8;;;21.76;66.23535
59987;BME280;46181;51.498;5.392;2023-07-31T08:14:10;100640.9;;;21.84;66.20117
59987;BME280;46181;51.498;5.392;2023-07-31T08:18:40;100646.9;;;21.92;66.00586
59987;BME280;46181;51.498;5.392;2023-07-31T08:23:10;100646.2;;;21.89;65.89844
59987;BME280;46181;51.498;5.392;2023-07-31T08:27:40;100649.4;;;21.85;65.9375
59987;BME280;46181;51.498;5.392;2023-07-31T08:32:10;100644.8;;;21.87;66.11328
59987;BME280;46181;51.498;5.392;2023-07-31T08:36:40;100645.3;;;21.92;66.06348
59987;BME280;46181;51.498;5.392;2023-07-31T08:41:11;100646.9;;;21.98;65.95605
59987;BME280;46181;51.498;5.392;2023-07-31T08:45:40;100643.3;;;21.96;65.88477
59987;BME280;46181;51.498;5.392;2023-07-31T08:50:11;100648;;;22.01;65.88086
59987;BME280;46181;51.498;5.392;2023-07-31T08:54:40;100647.6;;;22.02;65.90527
59987;BME280;46181;51.498;5.392;2023-07-31T08:59:11;100638.8;;;22.06;65.89941
59987;BME280;46181;51.498;5.392;2023-07-31T09:03:42;100637.1;;;22.14;65.83008
59987;BME280;46181;51.498;5.392;2023-07-31T09:08:11;100643.3;;;22.25;65.80176
59987;BME280;46181;51.498;5.392;2023-07-31T09:12:40;100636.3;;;22.31;65.72852
59987;BME280;46181;51.498;5.392;2023-07-31T09:17:10;100632.4;;;22.37;65.63379
59987;BME280;46181;51.498;5.392;2023-07-31T09:21:43;100623.8;;;22.4;65.51074
59987;BME280;46181;51.498;5.392;2023-07-31T09:26:10;100620.3;;;22.41;65.59277
59987;BME280;46181;51.498;5.392;2023-07-31T09:30:47;100617;;;22.54;65.53223
59987;BME280;46181;51.498;5.392;2023-07-31T09:35:16;100614.8;;;22.62;65.37109
59987;BME280;46181;51.498;5.392;2023-07-31T09:39:48;100616.5;;;22.69;65.24121
59987;BME280;46181;51.498;5.392;2023-07-31T09:44:10;100616.5;;;22.79;65.17676
59987;BME280;46181;51.498;5.392;2023-07-31T09:48:40;100607.5;;;22.78;65.03516
59987;BME280;46181;51.498;5.392;2023-07-31T09:53:10;100614.1;;;22.8;65.03809
59987;BME280;46181;51.498;5.392;2023-07-31T09:57:41;100609.8;;;22.8;65.01465
59987;BME280;46181;51.498;5.392;2023-07-31T10:02:10;100607.5;;;22.87;64.94434
59987;BME280;46181;51.498;5.392;2023-07-31T10:06:42;100603.6;;;22.92;64.82422
59987;BME280;46181;51.498;5.392;2023-07-31T10:11:11;100598.1;;;22.96;64.79492
59987;BME280;46181;51.498;5.392;2023-07-31T10:15:40;100597;;;23.15;64.74121
59987;BME280;46181;51.498;5.392;2023-07-31T10:20:11;100600;;;23.3;64.42871
59987;BME280;46181;51.498;5.392;2023-07-31T10:24:40;100597.6;;;23.44;64.16992
59987;BME280;46181;51.498;5.392;2023-07-31T10:29:10;100602.3;;;23.5;63.9375
59987;BME280;46181;51.498;5.392;2023-07-31T10:33:40;100599.1;;;23.48;63.78418
59987;BME280;46181;51.498;5.392;2023-07-31T10:38:17;100601.6;;;23.5;63.94922
59987;BME280;46181;51.498;5.392;2023-07-31T10:42:45;100606.1;;;23.62;63.74512
59987;BME280;46181;51.498;5.392;2023-07-31T10:47:10;100601.3;;;23.67;63.56641
59987;BME280;46181;51.498;5.392;2023-07-31T10:51:45;100608.3;;;23.64;63.60938
59987;BME280;46181;51.498;5.392;2023-07-31T10:56:11;100600.8;;;23.78;63.33984
59987;BME280;46181;51.498;5.392;2023-07-31T11:00:41;100591;;;23.81;63.2627
59987;BME280;46181;51.498;5.392;2023-07-31T11:05:19;100590;;;23.77;63.31445
59987;BME280;46181;51.498;5.392;2023-07-31T11:09:42;100594.4;;;24.04;63.0625
59987;BME280;46181;51.498;5.392;2023-07-31T11:14:10;100594.6;;;24.24;62.49902
59987;BME280;46181;51.498;5.392;2023-07-31T11:18:40;100590.2;;;24.1;62.37598
59987;BME280;46181;51.498;5.392;2023-07-31T11:23:11;100585.4;;;24.13;62.46094
59987;BME280;46181;51.498;5.392;2023-07-31T11:27:47;100583;;;24.19;62.12109
59987;BME280;46181;51.498;5.392;2023-07-31T11:32:15;100572.4;;;24.43;62.0625
59987;BME280;46181;51.498;5.392;2023-07-31T11:36:40;100566.3;;;24.7;61.82031
59987;BME280;46181;51.498;5.392;2023-07-31T11:41:13;100568.7;;;24.88;61.20508
59987;BME280;46181;51.498;5.392;2023-07-31T11:45:40;100584.7;;;24.85;60.62109
59987;BME280;46181;51.498;5.392;2023-07-31T11:50:10;100561.3;;;24.8;60.74121
59987;BME280;46181;51.498;5.392;2023-07-31T11:54:40;100565.8;;;24.73;60.88379
59987;BME280;46181;51.498;5.392;2023-07-31T11:59:10;100566.3;;;24.68;60.77344
59987;BME280;46181;51.498;5.392;2023-07-31T12:03:40;100567.4;;;24.64;60.92969
59987;BME280;46181;51.498;5.392;2023-07-31T12:08:17;100572.5;;;24.48;61.30371
59987;BME280;46181;51.498;5.392;2023-07-31T12:12:40;100556.2;;;24.53;61.25
59987;BME280;46181;51.498;5.392;2023-07-31T12:17:13;100562.1;;;24.49;61.31543
59987;BME280;46181;51.498;5.392;2023-07-31T12:21:40;100556.6;;;24.44;61.34277
59987;BME280;46181;51.498;5.392;2023-07-31T12:26:14;100541.5;;;24.29;61.65918
59987;BME280;46181;51.498;5.392;2023-07-31T12:30:42;100542.4;;;24.22;61.77832
59987;BME280;46181;51.498;5.392;2023-07-31T12:35:15;100541;;;24.08;61.85156
59987;BME280;46181;51.498;5.392;2023-07-31T12:39:40;100548.3;;;23.97;61.95117
59987;BME280;46181;51.498;5.392;2023-07-31T12:44:10;100536.7;;;23.92;62.14258
59987;BME280;46181;51.498;5.392;2023-07-31T12:48:40;100527.9;;;23.89;62.26563
59987;BME280;46181;51.498;5.392;2023-07-31T12:53:10;100510.2;;;23.94;62.29688
59987;BME280;46181;51.498;5.392;2023-07-31T12:57:40;100514.9;;;24;62.24609
59987;BME280;46181;51.498;5.392;2023-07-31T13:02:10;100513.1;;;24.07;62.09375
59987;BME280;46181;51.498;5.392;2023-07-31T13:06:40;100501.2;;;24.14;62.0332
59987;BME280;46181;51.498;5.392;2023-07-31T13:11:10;100504.5;;;24.2;61.83301
59987;BME280;46181;51.498;5.392;2023-07-31T13:15:40;100506.3;;;24.23;61.73242
59987;BME280;46181;51.498;5.392;2023-07-31T13:20:11;100521;;;24.26;61.62109
59987;BME280;46181;51.498;5.392;2023-07-31T13:24:40;100503.4;;;24.23;61.59277
59987;BME280;46181;51.498;5.392;2023-07-31T13:29:10;100504.9;;;24.21;61.52051
59987;BME280;46181;51.498;5.392;2023-07-31T13:33:40;100487.8;;;24.17;61.64355
59987;BME280;46181;51.498;5.392;2023-07-31T13:38:10;100481.8;;;24.11;61.60156
59987;BME280;46181;51.498;5.392;2023-07-31T13:42:40;100483.6;;;24.12;61.71777
59987;BME280;46181;51.498;5.392;2023-07-31T13:47:10;100485;;;24.13;61.83398
59987;BME280;46181;51.498;5.392;2023-07-31T13:51:40;100486.2;;;24.12;61.92676
59987;BME280;46181;51.498;5.392;2023-07-31T13:56:10;100496;;;24.07;62.00098
59987;BME280;46181;51.498;5.392;2023-07-31T14:00:40;100474.5;;;23.94;62.30664
59987;BME280;46181;51.498;5.392;2023-07-31T14:05:10;100483.3;;;23.87;62.39063
59987;BME280;46181;51.498;5.392;2023-07-31T14:09:40;100489.9;;;23.71;62.6582
59987;BME280;46181;51.498;5.392;2023-07-31T14:14:10;100490;;;23.59;63.03418
59987;BME280;46181;51.498;5.392;2023-07-31T14:18:40;100482.1;;;23.59;63.35938
59987;BME280;46181;51.498;5.392;2023-07-31T14:23:11;100464.2;;;23.62;63.41016
59987;BME280;46181;51.498;5.392;2023-07-31T14:27:40;100465.5;;;23.64;63.5166
59987;BME280;46181;51.498;5.392;2023-07-31T14:32:11;100466.7;;;23.67;63.61328
59987;BME280;46181;51.498;5.392;2023-07-31T14:36:40;100468.4;;;23.75;63.52051
59987;BME280;46181;51.498;5.392;2023-07-31T14:41:10;100458.4;;;23.82;63.48438
59987;BME280;46181;51.498;5.392;2023-07-31T14:45:40;100451.9;;;23.8;63.49316
59987;BME280;46181;51.498;5.392;2023-07-31T14:50:10;100440.6;;;23.75;63.54297
59987;BME280;46181;51.498;5.392;2023-07-31T14:54:40;100428.6;;;23.68;63.68359
59987;BME280;46181;51.498;5.392;2023-07-31T14:59:10;100426.7;;;23.62;63.7793
59987;BME280;46181;51.498;5.392;2023-07-31T15:03:40;100413.8;;;23.55;63.81641
59987;BME280;46181;51.498;5.392;2023-07-31T15:08:10;100419.8;;;23.51;64.06543
59987;BME280;46181;51.498;5.392;2023-07-31T15:12:40;100415.3;;;23.47;64.03613
59987;BME280;46181;51.498;5.392;2023-07-31T15:17:10;100405.5;;;23.37;64.18457
59987;BME280;46181;51.498;5.392;2023-07-31T15:21:40;100397.8;;;23.35;64.5166
59987;BME280;46181;51.498;5.392;2023-07-31T15:26:10;100391;;;23.32;64.68555
59987;BME280;46181;51.498;5.392;2023-07-31T15:30:40;100380.6;;;23.28;64.67969
59987;BME280;46181;51.498;5.392;2023-07-31T15:35:10;100387.4;;;23.21;64.71484
59987;BME280;46181;51.498;5.392;2023-07-31T15:39:40;100369.1;;;23.05;64.94727
59987;BME280;46181;51.498;5.392;2023-07-31T15:44:10;100362.9;;;22.95;65.2334
59987;BME280;46181;51.498;5.392;2023-07-31T15:48:40;100364.7;;;22.86;65.31348
59987;BME280;46181;51.498;5.392;2023-07-31T15:53:10;100356.3;;;22.73;65.36328
59987;BME280;46181;51.498;5.392;2023-07-31T15:57:40;100345.1;;;22.6;65.66699
59987;BME280;46181;51.498;5.392;2023-07-31T16:02:10;100336;;;22.52;65.90918
59987;BME280;46181;51.498;5.392;2023-07-31T16:06:40;100320.2;;;22.45;66.21094
59987;BME280;46181;51.498;5.392;2023-07-31T16:11:10;100316.5;;;22.41;66.34277
59987;BME280;46181;51.498;5.392;2023-07-31T16:15:40;100308.7;;;22.37;66.6377
59987;BME280;46181;51.498;5.392;2023-07-31T16:20:11;100309.4;;;22.4;66.83887
59987;BME280;46181;51.498;5.392;2023-07-31T16:24:40;100303.9;;;22.44;66.90234
59987;BME280;46181;51.498;5.392;2023-07-31T16:29:10;100298.4;;;22.5;66.81934
59987;BME280;46181;51.498;5.392;2023-07-31T16:33:40;100295;;;22.51;66.74023
59987;BME280;46181;51.498;5.392;2023-07-31T16:38:10;100288.4;;;22.46;66.96289
59987;BME280;46181;51.498;5.392;2023-07-31T16:42:40;100273.5;;;22.43;67.1084
59987;BME280;46181;51.498;5.392;2023-07-31T16:47:10;100257.4;;;22.44;67.20117
59987;BME280;46181;51.498;5.392;2023-07-31T16:51:40;100262.9;;;22.42;67.20996
59987;BME280;46181;51.498;5.392;2023-07-31T16:56:10;100247;;;22.39;67.25195
59987;BME280;46181;51.498;5.392;2023-07-31T17:00:40;100249.3;;;22.37;67.2373
59987;BME280;46181;51.498;5.392;2023-07-31T17:05:11;100241.9;;;22.35;67.33691
59987;BME280;46181;51.498;5.392;2023-07-31T17:09:40;100242.4;;;22.33;67.3916
59987;BME280;46181;51.498;5.392;2023-07-31T17:14:10;100240.3;;;22.3;67.45898
59987;BME280;46181;51.498;5.392;2023-07-31T17:18:40;100234.1;;;22.31;67.55078
59987;BME280;46181;51.498;5.392;2023-07-31T17:23:10;100220.9;;;22.35;67.65039
59987;BME280;46181;51.498;5.392;2023-07-31T17:27:40;100226.9;;;22.36;67.50098
59987;BME280;46181;51.498;5.392;2023-07-31T17:32:10;100206.5;;;22.29;67.44531
59987;BME280;46181;51.498;5.392;2023-07-31T17:36:40;100202.1;;;22.25;67.55469
59987;BME280;46181;51.498;5.392;2023-07-31T17:41:10;100207.3;;;22.23;67.79395
59987;BME280;46181;51.498;5.392;2023-07-31T17:45:41;100200.7;;;22.23;67.87305
59987;BME280;46181;51.498;5.392;2023-07-31T17:50:10;100199.6;;;22.26;67.91309
59987;BME280;46181;51.498;5.392;2023-07-31T17:54:40;100195;;;22.25;67.81934
59987;BME280;46181;51.498;5.392;2023-07-31T17:59:10;100195.5;;;22.26;67.91211
59987;BME280;46181;51.498;5.392;2023-07-31T18:03:40;100198.5;;;22.27;67.86914
59987;BME280;46181;51.498;5.392;2023-07-31T18:08:10;100192.3;;;22.23;67.90723
59987;BME280;46181;51.498;5.392;2023-07-31T18:12:40;100179;;;22.17;67.99121
59987;BME280;46181;51.498;5.392;2023-07-31T18:17:10;100161.2;;;22.17;68.08398
59987;BME280;46181;51.498;5.392;2023-07-31T18:21:40;100128;;;22.2;68.11133
59987;BME280;46181;51.498;5.392;2023-07-31T18:26:10;100106.7;;;22.2;68.12207
59987;BME280;46181;51.498;5.392;2023-07-31T18:30:40;100105.6;;;22.2;68.15723
59987;BME280;46181;51.498;5.392;2023-07-31T18:35:10;100097.2;;;22.18;68.14258
59987;BME280;46181;51.498;5.392;2023-07-31T18:39:40;100149.5;;;22.2;68.20313
59987;BME280;46181;51.498;5.392;2023-07-31T18:44:10;100138.3;;;22.12;67.86914
59987;BME280;46181;51.498;5.392;2023-07-31T18:48:40;100137.1;;;22.03;68.2002
59987;BME280;46181;51.498;5.392;2023-07-31T18:53:10;100111.6;;;21.98;68.13574
59987;BME280;46181;51.498;5.392;2023-07-31T18:57:40;100097.7;;;21.95;68.26855
59987;BME280;46181;51.498;5.392;2023-07-31T19:02:10;100123.9;;;21.95;68.19922
59987;BME280;46181;51.498;5.392;2023-07-31T19:06:40;100142.5;;;21.93;68.23145
59987;BME280;46181;51.498;5.392;2023-07-31T19:11:10;100124.4;;;21.94;68.25586
59987;BME280;46181;51.498;5.392;2023-07-31T19:15:40;100118.8;;;21.97;68.22656
59987;BME280;46181;51.498;5.392;2023-07-31T19:20:11;100113.1;;;21.96;68.1543
59987;BME280;46181;51.498;5.392;2023-07-31T19:24:40;100112.9;;;22;68.2998
59987;BME280;46181;51.498;5.392;2023-07-31T19:29:10;100109.6;;;22.07;68.28809
59987;BME280;46181;51.498;5.392;2023-07-31T19:33:40;100105.6;;;22.11;68.22363
59987;BME280;46181;51.498;5.392;2023-07-31T19:38:10;100117.6;;;22.15;68.12695
59987;BME280;46181;51.498;5.392;2023-07-31T19:42:40;100106.9;;;22.2;68.06445
59987;BME280;46181;51.498;5.392;2023-07-31T19:47:10;100097.5;;;22.26;67.88867
59987;BME280;46181;51.498;5.392;2023-07-31T19:51:40;100101.3;;;22.32;67.77148
59987;BME280;46181;51.498;5.392;2023-07-31T19:56:10;100101.6;;;22.35;67.63672
59987;BME280;46181;51.498;5.392;2023-07-31T20:00:40;100108.5;;;22.37;67.49023
59987;BME280;46181;51.498;5.392;2023-07-31T20:05:10;100112.2;;;22.35;67.45215
59987;BME280;46181;51.498;5.392;2023-07-31T20:09:40;100107.3;;;22.29;67.3877
59987;BME280;46181;51.498;5.392;2023-07-31T20:14:13;100088.8;;;22.24;67.4707
59987;BME280;46181;51.498;5.392;2023-07-31T20:18:40;100096;;;22.22;67.45801
59987;BME280;46181;51.498;5.392;2023-07-31T20:23:10;100085.9;;;22.13;67.32813
59987;BME280;46181;51.498;5.392;2023-07-31T20:27:40;100082.1;;;22.08;67.4248
59987;BME280;46181;51.498;5.392;2023-07-31T20:32:10;100085.1;;;22.06;67.37598
59987;BME280;46181;51.498;5.392;2023-07-31T20:36:41;100077.6;;;22.02;67.39258
59987;BME280;46181;51.498;5.392;2023-07-31T20:41:10;100069.5;;;21.98;67.3623
59987;BME280;46181;51.498;5.392;2023-07-31T20:45:40;100067;;;21.96;67.36133
59987;BME280;46181;51.498;5.392;2023-07-31T20:50:10;100050.5;;;21.92;67.25098
59987;BME280;46181;51.498;5.392;2023-07-31T20:54:40;100042.2;;;21.87;67.16211
59987;BME280;46181;51.498;5.392;2023-07-31T20:59:10;100026.7;;;21.78;67.21875
59987;BME280;46181;51.498;5.392;2023-07-31T21:03:40;100012.7;;;21.77;67.35449
59987;BME280;46181;51.498;5.392;2023-07-31T21:08:10;100011.9;;;21.78;67.3457
59987;BME280;46181;51.498;5.392;2023-07-31T21:12:40;99998.89;;;21.78;67.24219
59987;BME280;46181;51.498;5.392;2023-07-31T21:17:10;99997.94;;;21.78;67.30957
59987;BME280;46181;51.498;5.392;2023-07-31T21:21:40;99992.37;;;21.75;67.10938
59987;BME280;46181;51.498;5.392;2023-07-31T21:26:10;99986.24;;;21.69;67.06543
59987;BME280;46181;51.498;5.392;2023-07-31T21:30:41;99979.61;;;21.66;67.21191
59987;BME280;46181;51.498;5.392;2023-07-31T21:35:10;99967.63;;;21.66;67.23438
59987;BME280;46181;51.498;5.392;2023-07-31T21:39:40;99962.08;;;21.67;67.29297
59987;BME280;46181;51.498;5.392;2023-07-31T21:44:10;99951.97;;;21.7;67.31055
59987;BME280;46181;51.498;5.392;2023-07-31T21:48:40;99941.73;;;21.7;67.27539
59987;BME280;46181;51.498;5.392;2023-07-31T21:53:10;99940.86;;;21.7;67.26465
59987;BME280;46181;51.498;5.392;2023-07-31T21:57:40;99914.48;;;21.71;67.26563
59987;BME280;46181;51.498;5.392;2023-07-31T22:02:10;99920.56;;;21.72;67.27832
59987;BME280;46181;51.498;5.392;2023-07-31T22:06:40;99920.73;;;21.73;67.22363
59987;BME280;46181;51.498;5.392;2023-07-31T22:11:10;99908.02;;;21.74;67.23535
59987;BME280;46181;51.498;5.392;2023-07-31T22:15:40;99906.11;;;21.75;67.21387
59987;BME280;46181;51.498;5.392;2023-07-31T22:20:11;99913.48;;;21.78;67.23047
59987;BME280;46181;51.498;5.392;2023-07-31T22:24:40;99906.55;;;21.76;67.18164
59987;BME280;46181;51.498;5.392;2023-07-31T22:29:10;99888.49;;;21.76;67.21582
59987;BME280;46181;51.498;5.392;2023-07-31T22:33:40;99881.59;;;21.81;67.20996
59987;BME280;46181;51.498;5.392;2023-07-31T22:38:10;99873.95;;;21.84;67.22656
59987;BME280;46181;51.498;5.392;2023-07-31T22:42:40;99882.31;;;21.9;67.17773
59987;BME280;46181;51.498;5.392;2023-07-31T22:47:10;99870.25;;;21.9;67.01758
59987;BME280;46181;51.498;5.392;2023-07-31T22:51:40;99873.25;;;21.84;66.88086
59987;BME280;46181;51.498;5.392;2023-07-31T22:56:14;99862.89;;;21.77;67.08984
59987;BME280;46181;51.498;5.392;2023-07-31T23:00:40;99863.76;;;21.77;67.10059
59987;BME280;46181;51.498;5.392;2023-07-31T23:05:10;99855.25;;;21.75;67.13281